Time;durP1;ratioP1;P1;durP2;ratioP2;P2;SDS_P1;SDS_P2;PMS_P1;PMS_P2;Temp;Humidity;BMP_temperature;BMP_pressure;BME280_temperature;BME280_humidity;BME280_pressure;Samples;Min_cycle;Max_cycle;Signal;HPM_P1;HPM_P2
2023/04/21 00:01:01;;;;;;;42.28;38.65;;;11.60;99.90;;;;;;5102018;29;20706;-78
2023/04/21 00:03:37;;;;;;;40.65;37.53;;;11.70;99.90;;;;;;5086766;29;20028;-76
2023/04/21 00:06:14;;;;;;;37.08;34.58;;;11.70;99.90;;;;;;5089205;29;20034;-76
2023/04/21 00:08:45;;;;;;;33.33;31.02;;;11.50;99.90;;;;;;5077689;29;20032;-79
2023/04/21 00:11:15;;;;;;;33.33;30.88;;;11.50;99.90;;;;;;5102562;29;20508;-79
2023/04/21 00:13:46;;;;;;;34.42;32.03;;;11.40;99.90;;;;;;5087217;29;20020;-78
2023/04/21 00:16:17;;;;;;;32.78;30.17;;;11.50;99.90;;;;;;5088189;29;20024;-79
2023/04/21 00:18:53;;;;;;;30.80;28.60;;;11.30;99.90;;;;;;5078596;29;20036;-75
2023/04/21 00:21:34;;;;;;;33.22;30.90;;;11.40;99.90;;;;;;5071501;29;20070;-76
2023/04/21 00:24:05;;;;;;;33.38;30.98;;;11.50;99.90;;;;;;5080466;29;20501;-79
2023/04/21 00:26:36;;;;;;;34.10;31.52;;;11.40;99.90;;;;;;5085962;29;20044;-80
2023/04/21 00:29:12;;;;;;;34.35;32.05;;;11.40;99.90;;;;;;5085526;29;20031;-77
2023/04/21 00:31:43;;;;;;;33.67;31.27;;;11.50;99.90;;;;;;5074750;29;20031;-79
2023/04/21 00:34:14;;;;;;;35.83;33.05;;;11.50;99.90;;;;;;5085770;29;20032;-77
2023/04/21 00:36:45;;;;;;;31.77;29.67;;;11.30;99.90;;;;;;5072581;29;20032;-79
2023/04/21 00:39:16;;;;;;;33.05;30.90;;;11.20;99.90;;;;;;5067022;29;20044;-80
2023/04/21 00:41:46;;;;;;;29.65;27.50;;;11.30;99.90;;;;;;5085260;29;20040;-79
2023/04/21 00:44:17;;;;;;;32.75;30.63;;;11.40;99.90;;;;;;5086507;29;20046;-80
2023/04/21 00:46:50;;;;;;;35.00;32.45;;;11.50;99.90;;;;;;5087827;29;20416;-80
2023/04/21 00:49:23;;;;;;;34.55;32.20;;;11.50;99.90;;;;;;5087738;29;20035;-80
2023/04/21 00:51:54;;;;;;;34.17;31.98;;;11.50;99.90;;;;;;5086080;29;20028;-80
2023/04/21 00:54:27;;;;;;;36.42;33.90;;;11.40;99.90;;;;;;5086850;29;20032;-80
2023/04/21 00:56:58;;;;;;;37.70;35.17;;;11.50;99.90;;;;;;5087831;29;20115;-80
2023/04/21 00:59:32;;;;;;;34.45;32.25;;;11.50;99.90;;;;;;5102222;29;20477;-79
2023/04/21 01:02:03;;;;;;;37.20;34.85;;;11.50;99.90;;;;;;5069969;29;20461;-80
2023/04/21 01:04:37;;;;;;;35.05;32.83;;;11.50;99.90;;;;;;5068235;29;20385;-78
2023/04/21 01:07:08;;;;;;;34.13;31.92;;;11.30;99.90;;;;;;5079594;29;20040;-80
2023/04/21 01:09:39;;;;;;;37.25;34.65;;;11.50;99.90;;;;;;5083180;29;20033;-81
2023/04/21 01:12:12;;;;;;;38.05;35.55;;;11.40;99.90;;;;;;5105519;29;20381;-77
2023/04/21 01:14:43;;;;;;;37.25;34.75;;;11.50;99.90;;;;;;5089799;29;20036;-81
2023/04/21 01:17:17;;;;;;;38.75;36.25;;;11.60;99.90;;;;;;5089883;29;20031;-80
2023/04/21 01:19:49;;;;;;;38.58;36.08;;;11.50;99.90;;;;;;5089921;29;20051;-81
2023/04/21 01:22:20;;;;;;;37.00;34.58;;;11.50;99.90;;;;;;5107004;29;20448;-80
2023/04/21 01:24:51;;;;;;;35.47;32.97;;;11.20;99.90;;;;;;5106704;29;20027;-78
2023/04/21 01:27:22;;;;;;;36.60;34.17;;;11.40;99.90;;;;;;5106523;29;20040;-79
2023/04/21 01:29:53;;;;;;;36.08;33.53;;;11.40;99.90;;;;;;5089398;29;20102;-79
2023/04/21 01:32:26;;;;;;;37.67;35.25;;;11.50;99.90;;;;;;5106653;29;20035;-79
2023/04/21 01:34:58;;;;;;;38.70;36.20;;;11.60;99.90;;;;;;5089157;29;20020;-79
2023/04/21 01:37:31;;;;;;;37.08;34.63;;;11.60;99.90;;;;;;5089610;29;20031;-80
2023/04/21 01:40:08;;;;;;;38.10;35.47;;;11.50;99.90;;;;;;5106307;29;20032;-77
2023/04/21 01:42:43;;;;;;;36.30;33.88;;;11.30;99.90;;;;;;5106478;29;20051;-77
2023/04/21 01:45:17;;;;;;;37.00;34.47;;;11.30;99.90;;;;;;5088533;29;20031;-75
2023/04/21 01:47:47;;;;;;;33.97;31.63;;;11.30;99.90;;;;;;5106145;29;20028;-78
2023/04/21 01:50:18;;;;;;;35.78;32.80;;;11.20;99.90;;;;;;5106489;29;20400;-80
2023/04/21 01:52:49;;;;;;;35.42;32.75;;;11.20;99.90;;;;;;5089699;29;20416;-80
2023/04/21 01:55:20;;;;;;;35.00;32.53;;;11.10;99.90;;;;;;5106231;29;20086;-80
2023/04/21 01:57:51;;;;;;;32.13;29.85;;;11.00;99.90;;;;;;5106514;29;20043;-81
2023/04/21 02:00:22;;;;;;;31.65;29.42;;;11.00;99.90;;;;;;5106919;29;20023;-81
2023/04/21 02:02:53;;;;;;;31.75;29.55;;;11.00;99.90;;;;;;5093544;29;20028;-80
2023/04/21 02:05:24;;;;;;;31.13;29.10;;;11.10;99.90;;;;;;5089330;29;20480;-81
2023/04/21 02:07:54;;;;;;;32.60;30.35;;;11.00;99.90;;;;;;5106176;29;20547;-81
2023/04/21 02:10:25;;;;;;;31.60;29.50;;;11.20;99.90;;;;;;5105708;29;20176;-81
2023/04/21 02:12:56;;;;;;;31.33;29.10;;;11.00;99.90;;;;;;5106411;29;20496;-81
2023/04/21 02:15:27;;;;;;;32.70;30.38;;;11.00;99.90;;;;;;5106765;29;20024;-81
2023/04/21 02:17:58;;;;;;;30.95;28.85;;;10.80;99.90;;;;;;5106330;29;20031;-80
2023/04/21 02:20:29;;;;;;;30.80;28.73;;;11.00;99.90;;;;;;5106167;29;20488;-81
2023/04/21 02:23:00;;;;;;;31.42;29.25;;;10.80;99.90;;;;;;5089258;29;20499;-81
2023/04/21 02:25:31;;;;;;;31.58;29.48;;;10.90;99.90;;;;;;5106639;29;20024;-80
2023/04/21 02:28:01;;;;;;;33.30;30.35;;;11.00;99.90;;;;;;5105362;29;20024;-81
2023/04/21 02:30:33;;;;;;;31.92;29.52;;;10.90;99.90;;;;;;5108829;29;20476;-79
2023/04/21 02:33:04;;;;;;;31.58;29.23;;;10.60;99.90;;;;;;5109822;29;20031;-80
2023/04/21 02:35:35;;;;;;;32.95;30.65;;;10.80;99.90;;;;;;5109840;29;20099;-80
2023/04/21 02:38:07;;;;;;;29.75;27.63;;;10.80;99.90;;;;;;5109510;29;20091;-77
2023/04/21 02:40:38;;;;;;;29.42;27.17;;;10.90;99.90;;;;;;5109509;29;20050;-80
2023/04/21 02:43:10;;;;;;;33.28;30.77;;;11.00;99.90;;;;;;5109880;29;20835;-78
2023/04/21 02:45:41;;;;;;;29.92;27.70;;;10.80;99.90;;;;;;5109610;29;20023;-80
2023/04/21 02:48:12;;;;;;;29.38;26.85;;;10.70;99.90;;;;;;5109559;29;20024;-80
2023/04/21 02:50:46;;;;;;;31.27;28.92;;;10.90;99.90;;;;;;5109523;29;20424;-77
2023/04/21 02:53:18;;;;;;;30.73;28.35;;;10.90;99.90;;;;;;5092245;29;20055;-81
2023/04/21 02:55:49;;;;;;;32.30;30.00;;;10.90;99.90;;;;;;5109509;29;20086;-80
2023/04/21 02:58:19;;;;;;;29.63;27.58;;;10.90;99.90;;;;;;5108280;29;20051;-81
2023/04/21 03:00:50;;;;;;;29.33;27.30;;;11.00;99.90;;;;;;5108450;29;20039;-79
2023/04/21 03:03:21;;;;;;;31.63;29.27;;;10.70;99.90;;;;;;5109401;29;20028;-80
2023/04/21 03:05:58;;;;;;;31.38;29.23;;;10.70;99.90;;;;;;5109778;29;20031;-81
2023/04/21 03:08:30;;;;;;;28.95;26.83;;;10.90;99.90;;;;;;5109354;29;20023;-81
2023/04/21 03:11:01;;;;;;;28.63;26.80;;;10.90;99.90;;;;;;5100871;29;20056;-81
2023/04/21 03:13:32;;;;;;;29.88;27.73;;;10.80;99.90;;;;;;5098482;29;20027;-80
2023/04/21 03:16:03;;;;;;;31.20;28.92;;;10.90;99.90;;;;;;5091945;29;20050;-81
2023/04/21 03:18:35;;;;;;;30.65;28.38;;;10.80;99.90;;;;;;5109067;29;20037;-80
2023/04/21 03:21:06;;;;;;;30.20;28.05;;;10.80;99.90;;;;;;5109019;29;20035;-82
2023/04/21 03:23:36;;;;;;;29.55;27.50;;;10.80;99.90;;;;;;5109082;29;20032;-81
2023/04/21 03:26:08;;;;;;;29.70;27.52;;;10.80;99.90;;;;;;5108955;29;20027;-82
2023/04/21 03:28:38;;;;;;;30.75;28.38;;;10.90;99.90;;;;;;5107620;29;20032;-81
2023/04/21 03:31:09;;;;;;;31.98;28.95;;;10.90;99.90;;;;;;5108567;29;20091;-81
2023/04/21 03:33:40;;;;;;;30.60;28.45;;;10.70;99.90;;;;;;5091631;29;20083;-81
2023/04/21 03:36:11;;;;;;;29.02;27.23;;;10.60;99.90;;;;;;5109140;29;20027;-82
2023/04/21 03:38:42;;;;;;;30.55;28.20;;;10.70;99.90;;;;;;5091408;29;20028;-83
2023/04/21 03:41:13;;;;;;;30.23;28.02;;;10.50;99.90;;;;;;5108306;29;20038;-80
2023/04/21 03:43:43;;;;;;;30.13;28.02;;;10.70;99.90;;;;;;5091492;29;20392;-79
2023/04/21 03:46:21;;;;;;;29.40;27.42;;;10.90;99.90;;;;;;5091594;29;20024;-80
2023/04/21 03:48:52;;;;;;;29.52;27.63;;;11.00;99.90;;;;;;5108428;29;20035;-79
2023/04/21 03:51:23;;;;;;;30.30;28.00;;;11.00;99.90;;;;;;5107272;29;20031;-80
2023/04/21 03:53:53;;;;;;;30.45;28.10;;;11.00;99.90;;;;;;5108609;29;20040;-79
2023/04/21 03:56:24;;;;;;;33.00;30.58;;;11.00;99.90;;;;;;5108585;29;20031;-79
2023/04/21 03:58:55;;;;;;;32.45;30.05;;;10.80;99.90;;;;;;5108653;29;20495;-80
2023/04/21 04:01:26;;;;;;;31.23;28.90;;;10.80;99.90;;;;;;5091045;29;20031;-79
2023/04/21 04:03:57;;;;;;;31.77;29.48;;;10.80;99.90;;;;;;5087344;29;20374;-77
2023/04/21 04:06:29;;;;;;;30.88;28.85;;;10.70;99.90;;;;;;5108256;29;20032;-80
2023/04/21 04:09:03;;;;;;;32.30;30.13;;;10.90;99.90;;;;;;5108066;29;20114;-80
2023/04/21 04:11:34;;;;;;;33.03;30.63;;;10.90;99.90;;;;;;5090523;29;20055;-81
2023/04/21 04:14:05;;;;;;;33.40;31.20;;;11.00;99.90;;;;;;5108122;29;20035;-80
2023/04/21 04:16:36;;;;;;;30.48;28.33;;;11.20;99.90;;;;;;5107746;29;20573;-80
2023/04/21 04:19:07;;;;;;;31.85;29.55;;;11.20;99.90;;;;;;5106999;29;20507;-79
2023/04/21 04:21:38;;;;;;;34.22;31.65;;;11.20;99.90;;;;;;5088579;29;20036;-80
2023/04/21 04:24:10;;;;;;;32.35;30.15;;;11.20;99.90;;;;;;5088118;29;20035;-80
2023/04/21 04:26:41;;;;;;;32.40;30.33;;;11.10;99.90;;;;;;5088636;29;20028;-80
2023/04/21 04:29:12;;;;;;;31.73;29.52;;;11.20;99.90;;;;;;5078197;29;20114;-80
2023/04/21 04:31:43;;;;;;;31.23;29.13;;;11.10;99.90;;;;;;5088161;29;20079;-80
2023/04/21 04:34:14;;;;;;;31.80;29.60;;;11.30;99.90;;;;;;5088329;29;20522;-80
2023/04/21 04:36:47;;;;;;;37.10;34.50;;;11.50;99.90;;;;;;5070957;29;20073;-80
2023/04/21 04:39:17;;;;;;;35.15;32.75;;;11.40;99.90;;;;;;5088097;29;20083;-81
2023/04/21 04:41:48;;;;;;;35.17;32.83;;;11.30;99.90;;;;;;5107335;29;20047;-80
2023/04/21 04:44:19;;;;;;;35.58;33.17;;;11.40;99.90;;;;;;5107866;29;20675;-81
2023/04/21 04:46:51;;;;;;;35.60;33.30;;;11.30;99.90;;;;;;5107745;29;20086;-81
2023/04/21 04:49:22;;;;;;;35.85;33.45;;;11.40;99.90;;;;;;5095928;29;20145;-81
2023/04/21 04:51:53;;;;;;;38.22;35.60;;;11.50;99.90;;;;;;5087167;29;20129;-79
2023/04/21 04:54:24;;;;;;;38.45;35.92;;;11.50;99.90;;;;;;5086746;29;20034;-82
2023/04/21 04:56:56;;;;;;;39.35;36.55;;;11.70;99.90;;;;;;5087580;29;20032;-82
2023/04/21 04:59:27;;;;;;;37.10;34.70;;;11.60;99.90;;;;;;5087777;29;20031;-82
2023/04/21 05:01:58;;;;;;;38.42;35.67;;;11.80;99.90;;;;;;5087469;29;20048;-81
2023/04/21 05:04:29;;;;;;;35.38;33.08;;;11.80;99.90;;;;;;5101327;29;20379;-82
2023/04/21 05:07:01;;;;;;;36.55;34.20;;;11.80;99.90;;;;;;5106852;29;20043;-82
2023/04/21 05:09:33;;;;;;;39.25;36.55;;;11.70;99.90;;;;;;5106941;29;20026;-80
2023/04/21 05:12:04;;;;;;;36.47;33.92;;;11.70;99.90;;;;;;5106904;29;20048;-82
2023/04/21 05:14:35;;;;;;;36.78;34.47;;;11.80;99.90;;;;;;5106670;29;20392;-81
2023/04/21 05:17:06;;;;;;;39.70;37.03;;;11.70;99.90;;;;;;5106505;29;20031;-81
2023/04/21 05:19:37;;;;;;;37.28;34.88;;;11.90;99.90;;;;;;5089622;29;20043;-82
2023/04/21 05:22:08;;;;;;;39.03;36.55;;;12.00;99.90;;;;;;5106644;29;20051;-81
2023/04/21 05:24:41;;;;;;;36.30;33.83;;;12.10;99.90;;;;;;5089682;29;20365;-81
2023/04/21 05:27:12;;;;;;;41.00;38.28;;;11.90;99.90;;;;;;5087341;29;20034;-81
2023/04/21 05:29:43;;;;;;;39.95;37.08;;;11.90;99.90;;;;;;5087313;29;20103;-80
2023/04/21 05:32:14;;;;;;;40.92;38.22;;;12.10;99.90;;;;;;5095013;29;20024;-79
2023/04/21 05:34:45;;;;;;;42.83;40.03;;;12.10;99.90;;;;;;5106699;29;20023;-80
2023/04/21 05:37:15;;;;;;;43.58;40.67;;;12.20;99.90;;;;;;5089538;29;20052;-78
2023/04/21 05:39:46;;;;;;;38.05;35.40;;;12.20;99.90;;;;;;5106396;29;20091;-80
2023/04/21 05:42:17;;;;;;;38.95;36.30;;;12.20;99.90;;;;;;5106532;29;20036;-79
2023/04/21 05:44:48;;;;;;;42.22;39.42;;;12.30;99.90;;;;;;5106129;29;20119;-80
2023/04/21 05:47:19;;;;;;;39.47;36.53;;;12.30;99.90;;;;;;5089534;29;20036;-80
2023/04/21 05:49:53;;;;;;;38.63;35.83;;;12.40;99.90;;;;;;5089736;29;20035;-80
2023/04/21 05:52:24;;;;;;;41.78;38.72;;;12.50;99.90;;;;;;5106714;29;20026;-80
2023/04/21 05:54:55;;;;;;;40.42;37.42;;;12.60;99.90;;;;;;5106506;29;20027;-80
2023/04/21 05:57:26;;;;;;;39.50;36.50;;;12.60;99.90;;;;;;5089403;29;20020;-79
2023/04/21 05:59:57;;;;;;;38.20;35.47;;;12.80;99.90;;;;;;5106041;29;20099;-79
2023/04/21 06:02:28;;;;;;;39.67;36.60;;;13.10;99.90;;;;;;5106154;29;20028;-80
2023/04/21 06:04:59;;;;;;;39.53;36.28;;;13.30;99.90;;;;;;5108517;29;20506;-80
2023/04/21 06:07:30;;;;;;;38.17;35.28;;;13.40;99.90;;;;;;5110775;29;20032;-80
2023/04/21 06:10:01;;;;;;;43.05;39.65;;;13.50;99.90;;;;;;5110032;29;20042;-79
2023/04/21 06:12:31;;;;;;;45.95;41.97;;;13.80;99.90;;;;;;5110167;29;20051;-79
2023/04/21 06:15:02;;;;;;;41.88;38.38;;;13.80;99.90;;;;;;5110130;29;20090;-80
2023/04/21 06:17:33;;;;;;;41.75;38.42;;;13.90;99.90;;;;;;5092957;29;20079;-80
2023/04/21 06:20:05;;;;;;;39.33;36.22;;;13.90;99.90;;;;;;5110583;29;20103;-80
2023/04/21 06:22:36;;;;;;;40.78;37.67;;;13.90;99.90;;;;;;5110102;29;20559;-79
2023/04/21 06:25:07;;;;;;;39.45;36.50;;;13.90;99.90;;;;;;5110196;29;20102;-80
2023/04/21 06:27:38;;;;;;;35.72;33.22;;;13.90;99.90;;;;;;5110075;29;20032;-79
2023/04/21 06:30:09;;;;;;;31.20;28.90;;;13.90;99.90;;;;;;5110582;29;20083;-79
2023/04/21 06:32:40;;;;;;;36.17;33.65;;;13.90;99.90;;;;;;5108955;29;20028;-80
2023/04/21 06:35:11;;;;;;;34.88;32.47;;;14.00;99.90;;;;;;5108307;29;20075;-80
2023/04/21 06:37:42;;;;;;;33.05;30.83;;;14.20;99.90;;;;;;5092914;29;20160;-80
2023/04/21 06:40:14;;;;;;;28.27;26.27;;;14.20;99.90;;;;;;5092462;29;20036;-79
2023/04/21 06:42:45;;;;;;;31.95;29.85;;;14.20;99.90;;;;;;5109805;29;20051;-77
2023/04/21 06:45:16;;;;;;;29.30;27.40;;;14.40;99.90;;;;;;5109207;29;20970;-78
2023/04/21 06:47:47;;;;;;;29.70;27.60;;;14.50;99.90;;;;;;5109665;29;20035;-78
2023/04/21 06:50:18;;;;;;;27.23;25.42;;;14.40;99.90;;;;;;5109772;29;20030;-81
2023/04/21 06:52:49;;;;;;;26.83;25.13;;;14.40;99.90;;;;;;5109677;29;20032;-79
2023/04/21 06:55:20;;;;;;;31.23;29.23;;;14.50;99.90;;;;;;5092114;29;20027;-80
2023/04/21 06:57:50;;;;;;;28.45;26.58;;;14.50;99.90;;;;;;5088657;29;20032;-80
2023/04/21 07:00:21;;;;;;;30.05;27.95;;;14.70;99.90;;;;;;5098128;29;20023;-80
2023/04/21 07:02:52;;;;;;;29.73;27.58;;;14.80;99.90;;;;;;5109530;29;20110;-80
2023/04/21 07:05:23;;;;;;;28.88;26.95;;;14.80;99.90;;;;;;5109730;29;20115;-80
2023/04/21 07:07:58;;;;;;;29.23;27.38;;;14.80;99.90;;;;;;5092074;29;20024;-80
2023/04/21 07:10:30;;;;;;;24.48;22.98;;;15.00;99.90;;;;;;5107664;29;20530;-80
2023/04/21 07:13:00;;;;;;;28.38;26.52;;;15.10;99.90;;;;;;5109514;29;20042;-79
2023/04/21 07:15:31;;;;;;;26.00;24.27;;;15.30;99.90;;;;;;5108315;29;20115;-79
2023/04/21 07:18:02;;;;;;;23.02;21.55;;;15.30;99.90;;;;;;5091775;29;20130;-80
2023/04/21 07:20:33;;;;;;;23.73;22.17;;;15.30;99.90;;;;;;5109122;29;20102;-79
2023/04/21 07:23:04;;;;;;;21.70;19.98;;;15.40;99.90;;;;;;5092202;29;20027;-80
2023/04/21 07:25:35;;;;;;;21.92;20.45;;;15.60;99.90;;;;;;5091937;29;20056;-78
2023/04/21 07:28:06;;;;;;;22.73;21.30;;;15.70;99.90;;;;;;5105160;29;20024;-78
2023/04/21 07:30:37;;;;;;;23.10;21.58;;;15.70;99.90;;;;;;5106536;29;20027;-74
2023/04/21 07:33:08;;;;;;;22.48;20.85;;;15.80;99.90;;;;;;5107849;29;20024;-74
2023/04/21 07:35:39;;;;;;;21.80;19.75;;;15.80;99.90;;;;;;5093510;29;20028;-74
2023/04/21 07:38:10;;;;;;;21.40;20.05;;;15.70;99.90;;;;;;5088512;29;20024;-75
2023/04/21 07:40:40;;;;;;;22.02;20.63;;;15.80;99.90;;;;;;5617808;23;20565;-73
2023/04/21 07:43:11;;;;;;;22.17;20.48;;;16.00;99.90;;;;;;5167857;28;20064;-75
2023/04/21 07:45:44;;;;;;;22.23;20.73;;;16.10;99.90;;;;;;5167632;28;20030;-75
2023/04/21 07:48:15;;;;;;;22.35;20.95;;;16.10;99.90;;;;;;5167660;28;20378;-75
2023/04/21 07:50:45;;;;;;;21.83;20.23;;;16.30;99.90;;;;;;5167419;28;20030;-75
2023/04/21 07:53:16;;;;;;;23.08;21.27;;;16.30;99.90;;;;;;5156490;28;20529;-77
2023/04/21 07:55:53;;;;;;;23.73;21.85;;;16.30;99.90;;;;;;5167577;28;20027;-76
2023/04/21 07:58:24;;;;;;;23.65;21.90;;;16.30;99.90;;;;;;5167980;28;20023;-80
2023/04/21 08:00:55;;;;;;;25.45;23.95;;;16.40;99.90;;;;;;5167668;28;20041;-76
2023/04/21 08:03:27;;;;;;;25.45;23.85;;;16.30;99.90;;;;;;5149358;28;20034;-78
2023/04/21 08:05:58;;;;;;;24.25;22.60;;;16.30;99.90;;;;;;5167354;28;20038;-76
2023/04/21 08:08:29;;;;;;;20.95;19.55;;;16.20;99.90;;;;;;5150168;28;20022;-76
2023/04/21 08:11:00;;;;;;;22.27;20.88;;;16.10;99.90;;;;;;5136572;28;20093;-77
2023/04/21 08:13:31;;;;;;;22.25;20.75;;;16.00;99.90;;;;;;5129901;28;20030;-76
2023/04/21 08:16:02;;;;;;;20.50;19.30;;;16.00;99.90;;;;;;5142345;28;20038;-76
2023/04/21 08:18:33;;;;;;;22.23;20.70;;;16.10;99.90;;;;;;5144992;28;20395;-76
2023/04/21 08:21:04;;;;;;;22.80;21.30;;;16.20;99.90;;;;;;5147431;28;20030;-76
2023/04/21 08:23:34;;;;;;;21.60;19.88;;;16.30;99.90;;;;;;5147154;28;20122;-75
2023/04/21 08:26:05;;;;;;;21.58;20.27;;;16.20;99.90;;;;;;5146300;28;20031;-74
2023/04/21 08:28:36;;;;;;;21.13;19.83;;;16.40;99.90;;;;;;5145181;28;20054;-75
2023/04/21 08:31:07;;;;;;;21.33;20.02;;;16.30;99.90;;;;;;5135079;28;20031;-73
2023/04/21 08:33:38;;;;;;;22.00;20.58;;;16.30;99.90;;;;;;5149308;28;20014;-72
2023/04/21 08:36:10;;;;;;;21.33;20.02;;;16.20;99.90;;;;;;5142234;28;20085;-74
2023/04/21 08:38:43;;;;;;;24.30;22.70;;;16.20;99.90;;;;;;5155573;28;20368;-75
2023/04/21 08:41:14;;;;;;;26.55;24.95;;;16.30;99.90;;;;;;5146538;28;20111;-75
2023/04/21 08:43:44;;;;;;;23.65;22.05;;;16.20;99.90;;;;;;5139729;28;20035;-75
2023/04/21 08:46:15;;;;;;;21.65;20.27;;;16.30;99.90;;;;;;5129244;28;20038;-76
2023/04/21 08:48:47;;;;;;;25.08;23.30;;;16.30;99.90;;;;;;5146768;28;20023;-80
2023/04/21 08:51:30;;;;;;;24.20;22.70;;;16.40;99.90;;;;;;5147129;28;20030;-78
2023/04/21 08:54:01;;;;;;;23.15;21.60;;;16.40;99.90;;;;;;5126015;28;20063;-76
2023/04/21 08:56:31;;;;;;;24.67;23.05;;;16.30;99.90;;;;;;5146832;28;20059;-79
2023/04/21 08:59:03;;;;;;;22.90;21.50;;;16.20;99.90;;;;;;5139447;28;20035;-76
2023/04/21 09:02:05;;;;;;;26.55;24.67;;;16.40;99.90;;;;;;5134586;28;20039;-76
2023/04/21 09:04:45;;;;;;;23.98;22.23;;;16.40;99.90;;;;;;5144342;28;20537;-78
2023/04/21 09:07:33;;;;;;;23.70;22.10;;;16.50;99.90;;;;;;5134275;28;20115;-75
2023/04/21 09:10:05;;;;;;;17.38;16.08;;;16.70;99.90;;;;;;5138475;28;20034;-77
2023/04/21 09:12:39;;;;;;;17.60;16.35;;;17.20;99.90;;;;;;5146786;28;20085;-77
2023/04/21 09:15:11;;;;;;;19.08;17.67;;;17.70;99.90;;;;;;5146619;28;20470;-80
2023/04/21 09:17:44;;;;;;;19.65;18.35;;;17.20;99.90;;;;;;5129242;28;20033;-81
2023/04/21 09:20:18;;;;;;;18.95;17.33;;;17.50;99.90;;;;;;5132019;28;20041;-81
2023/04/21 09:22:50;;;;;;;20.42;19.00;;;17.70;99.90;;;;;;5146702;28;20034;-81
2023/04/21 09:25:21;;;;;;;19.30;17.90;;;18.20;99.90;;;;;;5146735;28;20019;-82
2023/04/21 09:27:54;;;;;;;18.08;16.77;;;18.30;99.90;;;;;;5149465;28;20026;-77
2023/04/21 09:30:25;;;;;;;18.77;17.48;;;19.00;99.90;;;;;;5150072;28;20027;-81
2023/04/21 09:32:57;;;;;;;18.52;17.42;;;18.10;99.90;;;;;;5145654;28;20478;-77
2023/04/21 09:35:29;;;;;;;21.15;19.73;;;18.00;99.90;;;;;;5145612;28;20471;-78
2023/04/21 09:38:09;;;;;;;19.75;17.92;;;18.00;99.90;;;;;;5128854;28;20569;-81
2023/04/21 09:40:40;;;;;;;20.23;18.83;;;18.20;99.90;;;;;;5145966;28;20082;-81
2023/04/21 09:43:11;;;;;;;20.65;19.25;;;17.80;99.90;;;;;;5125232;29;20023;-80
2023/04/21 09:45:42;;;;;;;20.92;19.52;;;18.10;99.90;;;;;;5126380;29;20037;-78
2023/04/21 09:48:16;;;;;;;20.55;19.30;;;18.10;99.90;;;;;;5109139;29;20140;-79
2023/04/21 09:50:47;;;;;;;19.70;18.45;;;18.30;99.90;;;;;;5140427;28;20031;-80
2023/04/21 09:53:23;;;;;;;21.27;19.92;;;18.20;99.90;;;;;;5146718;28;20986;-80
2023/04/21 09:55:57;;;;;;;18.45;17.35;;;17.90;99.90;;;;;;5146299;28;20023;-78
2023/04/21 09:58:36;;;;;;;17.40;16.00;;;17.70;99.90;;;;;;5128547;28;20027;-80
2023/04/21 10:01:09;;;;;;;16.98;15.65;;;17.70;99.90;;;;;;5150104;28;20042;-79
2023/04/21 10:03:42;;;;;;;16.45;15.32;;;17.70;99.90;;;;;;5160338;28;20121;-78
2023/04/21 10:06:14;;;;;;;15.82;14.80;;;18.00;99.90;;;;;;5156326;28;20026;-78
2023/04/21 10:08:46;;;;;;;14.68;13.75;;;18.30;99.90;;;;;;5145777;28;20070;-79
2023/04/21 10:11:17;;;;;;;14.75;13.75;;;19.00;99.90;;;;;;5141123;28;20046;-78
2023/04/21 10:13:48;;;;;;;16.30;15.23;;;19.00;99.90;;;;;;5133824;28;20035;-78
2023/04/21 10:16:21;;;;;;;15.13;14.00;;;18.80;99.90;;;;;;5128307;28;20431;-79
2023/04/21 10:18:52;;;;;;;15.85;14.85;;;18.90;99.90;;;;;;5145389;28;20027;-79
2023/04/21 10:21:25;;;;;;;15.07;13.82;;;18.90;99.90;;;;;;5131987;28;20500;-78
2023/04/21 10:23:58;;;;;;;18.02;16.83;;;19.00;99.90;;;;;;5134770;28;20127;-78
2023/04/21 10:26:34;;;;;;;18.20;16.98;;;19.00;99.90;;;;;;5149603;28;20029;-78
2023/04/21 10:29:06;;;;;;;17.63;16.25;;;18.80;99.90;;;;;;5159638;28;20059;-79
2023/04/21 10:31:50;;;;;;;18.33;17.02;;;18.60;99.90;;;;;;5128602;28;20030;-79
2023/04/21 10:34:24;;;;;;;16.83;15.63;;;18.50;99.90;;;;;;5149155;28;20033;-79
2023/04/21 10:36:54;;;;;;;17.15;16.05;;;18.50;99.90;;;;;;5155808;28;20030;-78
2023/04/21 10:39:32;;;;;;;17.15;15.85;;;18.60;99.90;;;;;;5153993;28;20538;-79
2023/04/21 10:42:12;;;;;;;16.65;15.63;;;18.80;99.90;;;;;;5141477;28;20034;-79
2023/04/21 10:44:44;;;;;;;16.33;15.40;;;19.00;99.90;;;;;;5157593;28;20022;-77
2023/04/21 10:47:35;;;;;;;13.88;12.98;;;19.10;99.90;;;;;;5135559;28;20065;-77
2023/04/21 10:50:15;;;;;;;15.68;14.55;;;19.10;99.90;;;;;;5115448;28;20046;-75
2023/04/21 10:52:55;;;;;;;14.10;13.20;;;19.40;99.90;;;;;;5141566;28;20026;-79
2023/04/21 10:55:27;;;;;;;16.55;15.23;;;19.90;99.90;;;;;;5149129;28;20093;-78
2023/04/21 10:58:02;;;;;;;15.85;14.85;;;20.10;99.90;;;;;;5149387;28;20031;-80
2023/04/21 11:00:33;;;;;;;14.93;13.93;;;19.80;99.90;;;;;;5145094;28;20034;-80
2023/04/21 11:03:05;;;;;;;15.50;14.57;;;19.80;99.90;;;;;;5140232;28;20026;-79
2023/04/21 11:05:39;;;;;;;17.10;15.70;;;20.30;99.90;;;;;;5148908;28;20080;-80
2023/04/21 11:08:14;;;;;;;16.38;15.13;;;20.50;99.90;;;;;;5148563;28;20498;-79
2023/04/21 11:10:48;;;;;;;15.52;14.20;;;20.30;99.90;;;;;;5142221;28;20030;-78
2023/04/21 11:13:23;;;;;;;15.07;14.18;;;20.40;99.90;;;;;;5169180;28;20494;-79
2023/04/21 11:16:03;;;;;;;14.35;13.38;;;20.30;99.90;;;;;;5158398;28;20023;-79
2023/04/21 11:18:42;;;;;;;15.25;14.30;;;20.60;99.90;;;;;;5132576;28;20060;-79
2023/04/21 11:21:20;;;;;;;15.70;14.50;;;21.00;99.90;;;;;;5151944;28;20034;-82
2023/04/21 11:23:53;;;;;;;17.17;15.98;;;20.90;99.90;;;;;;5148142;28;20082;-80
2023/04/21 11:26:37;;;;;;;15.38;14.18;;;20.30;99.90;;;;;;5148755;28;20027;-81
2023/04/21 11:29:10;;;;;;;14.55;13.45;;;20.40;99.90;;;;;;5131518;28;20516;-79
2023/04/21 11:31:45;;;;;;;14.25;13.43;;;19.60;99.90;;;;;;5158116;28;20058;-77
2023/04/21 11:34:19;;;;;;;17.83;16.60;;;20.10;99.90;;;;;;5157712;28;20030;-78
2023/04/21 11:36:52;;;;;;;18.33;16.92;;;20.00;99.90;;;;;;5148367;28;20031;-79
2023/04/21 11:39:23;;;;;;;16.33;15.32;;;20.40;99.90;;;;;;5148270;28;20088;-77
2023/04/21 11:41:54;;;;;;;16.40;15.38;;;20.90;99.90;;;;;;5148108;28;20494;-77
2023/04/21 11:44:40;;;;;;;15.48;14.45;;;20.50;99.90;;;;;;5148516;28;20355;-78
2023/04/21 11:47:29;;;;;;;16.58;15.35;;;20.40;99.90;;;;;;5131508;28;20049;-78
2023/04/21 11:50:01;;;;;;;13.02;12.07;;;20.70;99.90;;;;;;5150424;28;20037;-78
2023/04/21 11:52:36;;;;;;;12.57;11.77;;;20.80;99.90;;;;;;5135153;28;20395;-79
2023/04/21 11:55:16;;;;;;;15.80;14.75;;;20.90;99.90;;;;;;5147921;28;20030;-78
2023/04/21 11:57:50;;;;;;;17.65;16.35;;;20.90;99.90;;;;;;5130463;28;20027;-78
2023/04/21 12:00:21;;;;;;;14.95;13.85;;;21.00;99.90;;;;;;5130417;28;20073;-79
2023/04/21 12:02:55;;;;;;;14.35;13.45;;;20.10;99.90;;;;;;5147656;28;20038;-78
2023/04/21 12:05:34;;;;;;;13.25;12.38;;;20.20;99.90;;;;;;5162140;28;20030;-78
2023/04/21 12:08:06;;;;;;;15.90;14.65;;;20.00;99.90;;;;;;5148013;28;20035;-77
2023/04/21 12:10:37;;;;;;;14.13;13.20;;;19.90;99.90;;;;;;5126253;28;20503;-79
2023/04/21 12:13:07;;;;;;;14.02;13.15;;;20.10;99.90;;;;;;5141210;28;20090;-77
2023/04/21 12:15:38;;;;;;;13.98;13.07;;;20.60;99.90;;;;;;5147727;28;20046;-79
2023/04/21 12:18:13;;;;;;;15.23;14.13;;;20.20;99.90;;;;;;5147262;28;20027;-78
2023/04/21 12:20:51;;;;;;;14.02;12.93;;;20.10;99.90;;;;;;5160859;28;20470;-79
2023/04/21 12:23:22;;;;;;;16.63;15.32;;;20.10;99.90;;;;;;5167813;28;20037;-79
2023/04/21 12:25:53;;;;;;;17.92;16.77;;;19.60;99.90;;;;;;5167918;28;20019;-79
2023/04/21 12:28:24;;;;;;;15.38;14.27;;;19.00;99.90;;;;;;5156188;28;20038;-76
2023/04/21 12:30:55;;;;;;;17.48;16.08;;;18.40;99.90;;;;;;5150072;28;20456;-79
2023/04/21 12:33:26;;;;;;;19.20;17.77;;;17.70;99.90;;;;;;5158722;28;20121;-76
2023/04/21 12:35:58;;;;;;;17.85;16.40;;;17.00;99.90;;;;;;5146384;28;20069;-77
2023/04/21 12:41:09;;;;;;;14.77;13.38;;;15.60;99.90;;;;;;5392909;23;20446;-79
2023/04/21 12:43:40;;;;;;;16.77;15.32;;;15.50;99.90;;;;;;5149281;28;20038;-77
2023/04/21 12:46:11;;;;;;;14.82;13.52;;;14.90;99.90;;;;;;5149399;28;20023;-79
2023/04/21 12:48:43;;;;;;;18.70;15.98;;;14.50;99.90;;;;;;5162646;28;20505;-79
2023/04/21 12:51:13;;;;;;;17.92;16.33;;;14.50;99.90;;;;;;5148626;28;20113;-76
2023/04/21 12:53:45;;;;;;;20.25;18.27;;;14.50;99.90;;;;;;5155219;28;20105;-77
2023/04/21 12:56:16;;;;;;;17.13;15.57;;;14.60;99.90;;;;;;5164555;28;20033;-76